createdAt,value
2019-03-11T00:03:52.636Z,87
2019-03-11T00:09:21.028Z,88
2019-03-11T00:14:49.543Z,87
2019-03-11T00:20:17.905Z,88
2019-03-11T00:25:46.143Z,88
2019-03-11T00:31:13.528Z,87
2019-03-11T00:36:41.933Z,87
2019-03-11T00:42:10.358Z,87
2019-03-11T00:47:38.596Z,87
2019-03-11T00:53:05.988Z,88
2019-03-11T00:58:33.425Z,88
2019-03-11T01:04:01.731Z,89
2019-03-11T01:09:30.181Z,89
2019-03-11T01:14:57.448Z,89
2019-03-11T01:20:24.846Z,89
2019-03-11T01:25:52.253Z,89
2019-03-11T01:31:19.732Z,89
2019-03-11T01:36:47.045Z,89
2019-03-11T01:42:15.438Z,89
2019-03-11T01:47:43.833Z,89
2019-03-11T01:53:11.274Z,89
2019-03-11T01:58:39.578Z,89
2019-03-11T02:04:07.014Z,88
2019-03-11T02:09:34.337Z,88
2019-03-11T02:15:02.746Z,88
2019-03-11T02:20:31.103Z,88
2019-03-11T02:25:58.497Z,88
2019-03-11T02:31:26.795Z,88
2019-03-11T02:36:55.340Z,88
2019-03-11T02:42:22.552Z,88
2019-03-11T02:47:50.820Z,88
2019-03-11T02:53:18.255Z,88
2019-03-11T02:58:46.555Z,88
2019-03-11T03:04:13.853Z,88
2019-03-11T03:09:42.246Z,88
2019-03-11T03:15:10.541Z,88
2019-03-11T03:20:38.909Z,88
2019-03-11T03:26:07.274Z,88
2019-03-11T03:31:34.595Z,88
2019-03-11T03:37:02.834Z,89
2019-03-11T03:42:31.151Z,89
2019-03-11T03:47:58.475Z,88
2019-03-11T03:53:25.812Z,88
2019-03-11T03:58:54.263Z,89
2019-03-11T04:04:21.451Z,89
2019-03-11T04:09:49.804Z,89
2019-03-11T04:15:18.182Z,90
2019-03-11T04:20:45.441Z,90
2019-03-11T04:26:13.798Z,90
2019-03-11T04:31:42.115Z,90
2019-03-11T04:37:10.482Z,90
2019-03-11T04:42:38.825Z,90
2019-03-11T04:48:06.189Z,90
2019-03-11T04:53:33.453Z,90
2019-03-11T04:59:00.825Z,90
2019-03-11T05:04:29.258Z,90
2019-03-11T05:09:57.591Z,90
2019-03-11T05:15:25.858Z,90
2019-03-11T05:20:53.239Z,90
2019-03-11T05:26:21.549Z,90
2019-03-11T05:31:49.905Z,89
2019-03-11T05:37:17.239Z,90
2019-03-11T05:42:44.980Z,90
2019-03-11T05:48:11.949Z,90
2019-03-11T05:53:40.363Z,90
2019-03-11T05:59:07.670Z,90
2019-03-11T06:04:34.975Z,90
2019-03-11T06:10:03.334Z,90
2019-03-11T06:15:31.639Z,90
2019-03-11T06:20:59.990Z,90
2019-03-11T06:26:28.363Z,90
2019-03-11T06:31:55.755Z,90
2019-03-11T06:37:23.054Z,90
2019-03-11T06:42:51.382Z,91
2019-03-11T06:48:19.780Z,90
2019-03-11T06:53:48.091Z,91
2019-03-11T06:59:15.454Z,91
2019-03-11T07:04:42.821Z,91
2019-03-11T07:21:06.976Z,92
2019-03-11T07:26:35.482Z,92
2019-03-11T07:32:02.680Z,92
2019-03-11T07:37:30.028Z,92
2019-03-11T07:42:58.445Z,93
2019-03-11T07:48:26.782Z,93
2019-03-11T07:53:54.149Z,92
2019-03-11T07:59:21.541Z,92
2019-03-11T08:04:48.958Z,91
2019-03-11T08:10:16.467Z,91
2019-03-11T08:15:45.007Z,91
2019-03-11T08:21:12.181Z,91
2019-03-11T08:26:40.623Z,90
2019-03-11T08:32:09.096Z,91
2019-03-11T08:37:36.422Z,91
2019-03-11T08:43:03.837Z,91
2019-03-11T08:48:31.267Z,90
2019-03-11T08:53:58.664Z,89
2019-03-11T08:59:26.053Z,89
2019-03-11T09:04:54.578Z,90
2019-03-11T09:10:21.966Z,91
2019-03-11T09:15:49.314Z,91
2019-03-11T09:21:17.687Z,92
2019-03-11T09:26:46.102Z,92
2019-03-11T09:32:14.587Z,92
2019-03-11T09:37:41.871Z,91
2019-03-11T09:43:10.480Z,91
2019-03-11T09:48:38.704Z,92
2019-03-11T09:54:07.146Z,92
2019-03-11T09:59:35.548Z,92
2019-03-11T10:05:03.023Z,92
2019-03-11T10:10:30.590Z,91
2019-03-11T10:15:57.913Z,91
2019-03-11T10:21:26.440Z,91
2019-03-11T10:26:54.868Z,91
2019-03-11T10:32:22.313Z,91
2019-03-11T10:37:49.794Z,91
2019-03-11T10:43:17.311Z,92
2019-03-11T10:48:44.817Z,91
2019-03-11T10:54:12.258Z,90
2019-03-11T10:59:40.712Z,90
2019-03-11T11:05:09.632Z,89
2019-03-11T11:10:36.739Z,90
2019-03-11T11:16:04.315Z,89
2019-03-11T11:21:31.859Z,90
2019-03-11T11:27:00.408Z,89
2019-03-11T11:32:28.971Z,89
2019-03-11T11:37:56.921Z,88
2019-03-11T11:43:25.066Z,87
2019-03-11T11:48:52.705Z,86
2019-03-11T11:54:21.286Z,86
2019-03-11T11:59:53.860Z,85
2019-03-11T12:05:16.506Z,86
2019-03-11T12:10:45.099Z,87
2019-03-11T12:16:12.694Z,88
2019-03-11T12:21:40.371Z,84
2019-03-11T12:27:08.127Z,83
2019-03-11T12:32:36.643Z,82
2019-03-11T12:38:05.230Z,80
2019-03-11T12:43:32.801Z,78
2019-03-11T12:49:01.544Z,80
2019-03-11T12:54:29.023Z,78
2019-03-11T12:59:57.626Z,80
2019-03-11T13:05:25.225Z,76
2019-03-11T13:10:53.855Z,74
2019-03-11T13:16:22.439Z,75
2019-03-11T13:21:50.011Z,76
2019-03-11T13:27:17.733Z,77
2019-03-11T13:32:46.167Z,77
2019-03-11T13:38:14.822Z,76
2019-03-11T13:43:43.253Z,75
2019-03-11T13:49:10.833Z,74
2019-03-11T13:54:38.431Z,72
2019-03-11T14:00:06.105Z,73
2019-03-11T14:05:33.697Z,72
2019-03-11T14:11:02.429Z,72
2019-03-11T14:16:29.995Z,71
2019-03-11T14:21:57.553Z,70
2019-03-11T14:27:25.242Z,69
2019-03-11T14:32:53.800Z,69
2019-03-11T14:38:22.416Z,69
2019-03-11T14:43:50.090Z,69
2019-03-11T14:49:17.691Z,68
2019-03-11T14:54:46.630Z,68
2019-03-11T15:00:17.789Z,70
2019-03-11T15:05:42.681Z,67
2019-03-11T15:11:10.632Z,68
2019-03-11T15:16:37.956Z,68
2019-03-11T15:22:06.949Z,69
2019-03-11T15:27:34.172Z,69
2019-03-11T15:33:01.958Z,67
2019-03-11T15:38:30.487Z,68
2019-03-11T15:43:58.062Z,67
2019-03-11T15:49:26.714Z,69
2019-03-11T15:54:55.301Z,70
2019-03-11T16:00:22.994Z,69
2019-03-11T16:05:51.533Z,70
2019-03-11T16:11:20.278Z,71
2019-03-11T16:16:47.925Z,70
2019-03-11T16:22:23.133Z,71
2019-03-11T16:27:43.933Z,70
2019-03-11T16:33:12.502Z,70
2019-03-11T16:38:40.444Z,71
2019-03-11T16:44:07.991Z,70
2019-03-11T16:49:35.428Z,71
2019-03-11T16:55:03.854Z,72
2019-03-11T17:00:31.472Z,75
2019-03-11T17:05:59.976Z,76
2019-03-11T17:11:28.634Z,76
2019-03-11T17:16:56.065Z,77
2019-03-11T17:22:24.610Z,77
2019-03-11T17:27:53.221Z,77
2019-03-11T17:33:21.718Z,78
2019-03-11T17:38:49.216Z,78
2019-03-11T17:44:17.753Z,78
2019-03-11T17:49:45.444Z,78
2019-03-11T17:55:13.843Z,79
2019-03-11T18:00:41.362Z,79
2019-03-11T18:06:11.805Z,79
2019-03-11T18:11:39.887Z,79
2019-03-11T18:17:06.826Z,79
2019-03-11T18:22:35.306Z,80
2019-03-11T18:28:02.837Z,80
2019-03-11T18:33:31.444Z,80
2019-03-11T18:38:59.762Z,80
2019-03-11T18:44:27.371Z,80
2019-03-11T18:49:55.686Z,79
2019-03-11T18:55:24.104Z,79
2019-03-11T19:00:51.639Z,79
2019-03-11T19:06:19.136Z,78
2019-03-11T19:11:47.521Z,79
2019-03-11T19:17:15.978Z,79
2019-03-11T19:22:44.455Z,78
2019-03-11T19:28:12.901Z,78
2019-03-11T19:33:41.311Z,78
2019-03-11T19:39:08.687Z,77
2019-03-11T19:44:37.124Z,77
2019-03-11T19:50:07.067Z,77
2019-03-11T19:55:32.045Z,76
2019-03-11T20:01:00.236Z,77
2019-03-11T20:06:26.696Z,77
2019-03-11T20:11:54.289Z,77
2019-03-11T20:17:21.561Z,77
2019-03-11T20:22:49.904Z,77
2019-03-11T20:28:17.281Z,77
2019-03-11T20:33:45.581Z,77
2019-03-11T20:39:14.058Z,77
2019-03-11T20:44:41.422Z,76
2019-03-11T20:50:09.859Z,77
2019-03-11T20:55:37.200Z,78
2019-03-11T21:01:05.825Z,76
2019-03-11T21:06:33.794Z,78
2019-03-11T21:12:01.201Z,78
2019-03-11T21:17:29.553Z,78
2019-03-11T21:22:55.766Z,79
2019-03-11T21:28:23.392Z,79
2019-03-11T21:33:58.213Z,79
2019-03-11T21:39:17.835Z,79
2019-03-11T21:44:46.229Z,80
2019-03-11T21:50:13.413Z,80
2019-03-11T21:55:41.691Z,80
2019-03-11T22:01:11.154Z,80
2019-03-11T22:06:37.390Z,80
2019-03-11T22:12:04.666Z,80
2019-03-11T22:17:31.863Z,80
2019-03-11T22:23:00.303Z,80
2019-03-11T22:28:27.505Z,80
2019-03-11T22:33:54.733Z,80
2019-03-11T22:39:22.023Z,80
2019-03-11T22:44:50.325Z,81
2019-03-11T22:50:18.185Z,81
2019-03-11T22:55:44.818Z,81
2019-03-11T23:01:13.116Z,81
2019-03-11T23:06:41.590Z,82
2019-03-11T23:12:09.825Z,82
2019-03-11T23:17:37.295Z,82
2019-03-11T23:23:05.141Z,82
2019-03-11T23:28:33.441Z,81
2019-03-11T23:34:00.659Z,81
2019-03-11T23:39:27.969Z,81
2019-03-11T23:44:55.211Z,81
2019-03-11T23:50:22.528Z,81
2019-03-11T23:55:50.708Z,81
